createdAt,value
2023-04-12T00:00:01.310Z,12.30
2023-04-12T00:20:01.136Z,10.40
2023-04-12T00:30:01.137Z,10.20
2023-04-12T00:40:00.790Z,8.60
2023-04-12T00:50:01.738Z,8.30
2023-04-12T01:00:00.866Z,10.00
2023-04-12T01:10:01.354Z,7.10
2023-04-12T01:20:01.150Z,8.70
2023-04-12T01:30:01.341Z,6.00
2023-04-12T01:40:00.802Z,9.40
2023-04-12T01:50:01.498Z,5.80
2023-04-12T02:00:00.837Z,8.20
2023-04-12T02:10:00.294Z,7.60
2023-04-12T02:20:01.898Z,7.30
2023-04-12T02:30:00.882Z,5.50
2023-04-12T02:40:00.821Z,7.40
2023-04-12T02:50:01.512Z,7.00
2023-04-12T03:00:00.991Z,7.20
2023-04-12T03:10:00.290Z,3.80
2023-04-12T03:20:01.063Z,6.70
2023-04-12T03:30:02.177Z,5.90
2023-04-12T03:40:01.102Z,3.80
2023-04-12T03:50:10.756Z,4.30
2023-04-12T04:00:03.049Z,7.20
2023-04-12T04:10:00.849Z,3.90
2023-04-12T04:20:00.947Z,6.40
2023-04-12T04:30:02.224Z,6.10
2023-04-12T04:40:00.954Z,3.30
2023-04-12T05:00:00.293Z,4.70
2023-04-12T05:10:01.307Z,3.80
2023-04-12T05:20:01.523Z,4.00
2023-04-12T05:30:00.869Z,5.00
2023-04-12T05:40:01.475Z,3.60
2023-04-12T05:50:02.222Z,4.90
2023-04-12T06:00:00.864Z,3.40
2023-04-12T06:10:01.639Z,4.20
2023-04-12T06:20:01.368Z,3.90
2023-04-12T06:30:01.547Z,5.20
2023-04-12T06:40:01.285Z,5.00
2023-04-12T06:50:01.113Z,9.90
2023-04-12T07:00:00.879Z,7.20
2023-04-12T07:10:00.295Z,6.10
2023-04-12T07:20:01.306Z,11.00
2023-04-12T07:30:00.888Z,5.80
2023-04-12T07:40:00.341Z,7.10
2023-04-12T07:50:01.201Z,4.80
2023-04-12T08:00:00.985Z,4.70
2023-04-12T08:10:01.500Z,8.20
2023-04-12T08:20:00.765Z,5.50
2023-04-12T08:30:00.861Z,11.80
2023-04-12T08:40:02.245Z,6.40
2023-04-12T08:50:01.497Z,9.20
2023-04-12T09:00:02.153Z,10.80
2023-04-12T09:10:02.101Z,15.50
2023-04-12T09:20:01.399Z,14.20
2023-04-12T09:30:01.075Z,12.30
2023-04-12T09:40:01.029Z,5.40
2023-04-12T09:50:01.043Z,4.80
2023-04-12T10:00:01.318Z,9.10
2023-04-12T10:10:00.896Z,5.40
2023-04-12T10:20:00.918Z,7.60
2023-04-12T10:30:00.895Z,7.40
2023-04-12T10:40:00.864Z,3.90
2023-04-12T11:00:01.020Z,284.20
2023-04-12T11:10:00.786Z,643.80
2023-04-12T11:20:01.575Z,758.70
2023-04-12T11:30:01.067Z,809.50
2023-04-12T11:40:01.080Z,825.10
2023-04-12T11:50:01.416Z,819.40
2023-04-12T12:00:01.510Z,794.50
2023-04-12T12:20:01.891Z,808.10
2023-04-12T12:30:01.053Z,754.00
2023-04-12T12:40:00.876Z,767.50
2023-04-12T12:50:01.334Z,778.40
2023-04-12T13:00:01.567Z,732.50
2023-04-12T13:10:03.679Z,715.30
2023-04-12T13:20:01.090Z,739.90
2023-04-12T13:30:02.015Z,703.50
2023-04-12T13:40:00.813Z,664.40
2023-04-12T13:50:02.108Z,702.60
2023-04-12T14:00:01.138Z,625.10
2023-04-12T14:10:01.128Z,523.00
2023-04-12T14:20:00.899Z,314.30
2023-04-12T14:30:01.365Z,140.10
2023-04-12T14:40:01.064Z,152.80
2023-04-12T14:50:01.298Z,142.40
2023-04-12T15:00:00.253Z,114.60
2023-04-12T15:10:01.154Z,118.80
2023-04-12T15:20:00.808Z,137.50
2023-04-12T15:30:01.501Z,104.70
2023-04-12T15:40:01.224Z,128.00
2023-04-12T15:50:01.544Z,105.30
2023-04-12T16:00:00.826Z,85.50
2023-04-12T16:10:00.885Z,99.60
2023-04-12T16:20:01.299Z,106.90
2023-04-12T16:30:01.530Z,90.20
2023-04-12T16:40:02.280Z,80.70
2023-04-12T16:50:00.890Z,108.60
2023-04-12T17:00:01.532Z,68.90
2023-04-12T17:10:03.413Z,98.50
2023-04-12T17:20:02.936Z,87.80
2023-04-12T17:30:00.911Z,84.50
2023-04-12T17:40:01.034Z,76.00
2023-04-12T18:00:00.882Z,86.80
2023-04-12T18:10:00.799Z,76.80
2023-04-12T18:20:02.707Z,110.00
2023-04-12T18:30:00.883Z,87.10
2023-04-12T18:40:01.538Z,87.80
2023-04-12T18:50:01.457Z,105.20
2023-04-12T19:00:01.047Z,100.90
2023-04-12T19:20:00.750Z,98.70
2023-04-12T19:30:00.861Z,90.60
2023-04-12T19:40:01.042Z,97.80
2023-04-12T19:50:02.611Z,81.20
2023-04-12T20:00:02.481Z,86.20
2023-04-12T20:10:01.137Z,90.10
2023-04-12T20:20:01.497Z,96.30
2023-04-12T20:30:01.191Z,84.90
2023-04-12T20:40:00.734Z,86.80
2023-04-12T20:50:00.812Z,113.20
2023-04-12T21:00:01.062Z,110.70
2023-04-12T21:10:01.214Z,102.50
2023-04-12T21:20:01.336Z,95.60
2023-04-12T21:30:01.400Z,102.60
2023-04-12T21:40:01.238Z,97.90
2023-04-12T21:50:01.166Z,79.60
2023-04-12T22:00:01.064Z,82.40
2023-04-12T22:10:00.858Z,82.10
2023-04-12T22:20:01.027Z,88.50
2023-04-12T22:30:01.032Z,83.00
2023-04-12T22:40:00.843Z,112.60
2023-04-12T22:50:01.931Z,86.60
2023-04-12T23:00:00.842Z,99.30
2023-04-12T23:10:03.154Z,94.90
2023-04-12T23:20:02.284Z,95.10
2023-04-12T23:30:00.937Z,103.50
2023-04-12T23:40:00.855Z,108.30
2023-04-12T23:50:04.320Z,101.30
